Time;durP1;ratioP1;P1;durP2;ratioP2;P2;SDS_P1;SDS_P2;PMS_P1;PMS_P2;Temp;Humidity;BMP_temperature;BMP_pressure;BME280_temperature;BME280_humidity;BME280_pressure;Samples;Min_cycle;Max_cycle;Signal;HPM_P1;HPM_P2
2021/09/28 00:00:55;;;;;;;0.70;0.60;;;;;;;11.56;100.00;-20996.59;6277044;22;20387;-72
2021/09/28 00:03:24;;;;;;;0.70;0.60;;;;;;;11.61;100.00;-20997.81;6276537;22;20395;-72
2021/09/28 00:05:50;;;;;;;0.80;0.70;;;;;;;11.73;100.00;-21001.13;6276943;22;20824;-73
2021/09/28 00:08:17;;;;;;;0.70;0.60;;;;;;;11.75;100.00;-21001.69;6249326;22;20429;-73
2021/09/28 00:10:45;;;;;;;0.70;0.60;;;;;;;11.69;100.00;-20999.91;6276933;22;20389;-72
2021/09/28 00:13:16;;;;;;;0.70;0.60;;;;;;;11.65;100.00;-20998.78;6277137;22;20770;-73
2021/09/28 00:15:45;;;;;;;0.70;0.63;;;;;;;11.74;100.00;-21001.28;6250128;22;20458;-73
2021/09/28 00:18:12;;;;;;;0.70;0.70;;;;;;;11.57;100.00;-20996.84;6248987;22;20884;-73
2021/09/28 00:20:41;;;;;;;0.70;0.60;;;;;;;11.50;100.00;-20994.91;6277059;22;20465;-73
2021/09/28 00:23:13;;;;;;;0.70;0.70;;;;;;;11.40;100.00;-20992.16;6248829;22;20513;-73
2021/09/28 00:25:40;;;;;;;0.70;0.60;;;;;;;11.38;100.00;-20991.59;6276271;22;20442;-72
2021/09/28 00:28:08;;;;;;;0.70;0.60;;;;;;;11.36;100.00;-20991.06;6248917;22;20499;-73
2021/09/28 00:30:35;;;;;;;0.70;0.60;;;;;;;11.36;100.00;-20991.19;6275058;22;20398;-73
2021/09/28 00:33:02;;;;;;;0.70;0.70;;;;;;;11.33;100.00;-20990.22;6276031;22;20379;-72
2021/09/28 00:35:30;;;;;;;0.70;0.60;;;;;;;11.28;100.00;-20988.97;6275993;22;20419;-73
2021/09/28 00:38:04;;;;;;;0.70;0.60;;;;;;;11.33;100.00;-20990.34;6249781;22;20414;-73
2021/09/28 00:40:40;;;;;;;0.70;0.60;;;;;;;11.56;100.00;-20996.59;6276773;22;20370;-73
2021/09/28 00:43:17;;;;;;;0.70;0.60;;;;;;;11.81;100.00;-21003.22;6276336;22;20477;-72
2021/09/28 00:45:45;;;;;;;0.70;0.60;;;;;;;11.87;100.00;-21004.75;6276432;22;20421;-72
2021/09/28 00:48:18;;;;;;;0.73;0.73;;;;;;;11.88;100.00;-21005.16;6250264;22;20416;-72
2021/09/28 00:50:50;;;;;;;0.70;0.70;;;;;;;11.95;100.00;-21006.94;6250461;22;20411;-72
2021/09/28 00:53:22;;;;;;;0.70;0.70;;;;;;;11.92;100.00;-21006.13;6224798;22;20483;-73
2021/09/28 00:55:53;;;;;;;0.70;0.70;;;;;;;11.76;100.00;-21001.97;6250712;22;20406;-72
2021/09/28 00:58:22;;;;;;;0.70;0.60;;;;;;;11.68;100.00;-20999.63;6249763;22;20811;-73
2021/09/28 01:00:55;;;;;;;0.70;0.70;;;;;;;11.65;100.00;-20998.78;6276407;22;20367;-73
2021/09/28 01:03:31;;;;;;;0.70;0.60;;;;;;;11.55;100.00;-20996.16;6252437;22;20436;-72
2021/09/28 01:06:08;;;;;;;0.70;0.60;;;;;;;11.54;100.00;-20996.03;6253274;22;20417;-73
2021/09/28 01:08:41;;;;;;;0.70;0.63;;;;;;;11.52;100.00;-20995.34;6252848;22;20414;-72
2021/09/28 01:11:15;;;;;;;0.70;0.60;;;;;;;11.53;100.00;-20995.75;6252793;22;20782;-73
2021/09/28 01:13:50;;;;;;;0.70;0.60;;;;;;;11.62;100.00;-20998.09;6278648;22;20954;-72
2021/09/28 01:16:24;;;;;;;0.70;0.60;;;;;;;11.69;100.00;-20999.91;6252837;22;20740;-73
2021/09/28 01:19:01;;;;;;;0.70;0.60;;;;;;;11.83;100.00;-21003.75;6254180;22;20693;-73
2021/09/28 01:21:34;;;;;;;0.70;0.60;;;;;;;12.07;100.00;-21010.41;6277984;22;20725;-74
2021/09/28 01:24:05;;;;;;;0.70;0.60;;;;;;;12.12;100.00;-21011.63;6250273;22;20820;-72
2021/09/28 01:26:40;;;;;;;0.70;0.60;;;;;;;12.20;100.00;-21013.72;6278212;22;20368;-73
2021/09/28 01:29:12;;;;;;;0.70;0.60;;;;;;;12.25;100.00;-21015.09;6225780;22;20479;-72
2021/09/28 01:31:47;;;;;;;0.70;0.60;;;;;;;12.28;100.00;-21015.91;6252774;22;20428;-72
2021/09/28 01:34:19;;;;;;;0.70;0.67;;;;;;;12.28;100.00;-21015.91;6250774;22;20449;-72
2021/09/28 01:36:54;;;;;;;0.70;0.60;;;;;;;12.29;100.00;-21016.19;6250730;22;20403;-72
2021/09/28 01:39:22;;;;;;;0.70;0.60;;;;;;;12.20;100.00;-21013.84;6251268;22;20412;-73
2021/09/28 01:41:50;;;;;;;0.70;0.60;;;;;;;12.14;100.00;-21012.06;6277388;22;20453;-73
2021/09/28 01:44:19;;;;;;;0.70;0.70;;;;;;;12.15;100.00;-21012.31;6277544;22;20521;-72
2021/09/28 01:46:48;;;;;;;0.70;0.60;;;;;;;12.16;100.00;-21012.59;6278746;22;20388;-72
2021/09/28 01:49:17;;;;;;;0.70;0.60;;;;;;;12.12;100.00;-21011.50;6251716;22;20852;-73
2021/09/28 01:51:45;;;;;;;0.70;0.60;;;;;;;12.10;100.00;-21011.09;6277113;22;20867;-73
2021/09/28 01:54:14;;;;;;;0.70;0.70;;;;;;;12.09;100.00;-21010.94;6277314;22;20442;-72
2021/09/28 01:56:41;;;;;;;0.70;0.60;;;;;;;12.16;100.00;-21012.75;6278571;22;20411;-72
2021/09/28 01:59:08;;;;;;;0.70;0.70;;;;;;;12.17;100.00;-21013.03;6225377;22;20533;-72
2021/09/28 02:01:37;;;;;;;0.70;0.70;;;;;;;12.21;100.00;-21014.13;6277811;22;20887;-72
2021/09/28 02:04:04;;;;;;;0.70;0.60;;;;;;;12.23;100.00;-21014.53;6278077;22;20379;-72
2021/09/28 02:06:36;;;;;;;0.70;0.60;;;;;;;12.25;100.00;-21015.09;6278163;22;20465;-73
2021/09/28 02:09:04;;;;;;;0.70;0.60;;;;;;;12.26;100.00;-21015.50;6277237;22;20410;-72
2021/09/28 02:11:33;;;;;;;0.70;0.60;;;;;;;12.31;100.00;-21016.75;6250215;22;20926;-72
2021/09/28 02:14:01;;;;;;;0.70;0.60;;;;;;;12.31;100.00;-21016.75;6249323;22;20406;-72
2021/09/28 02:16:28;;;;;;;0.70;0.60;;;;;;;12.28;100.00;-21016.06;6277770;22;20367;-72
2021/09/28 02:18:55;;;;;;;0.70;0.60;;;;;;;12.20;100.00;-21013.72;6277688;22;20460;-72
2021/09/28 02:21:22;;;;;;;0.70;0.60;;;;;;;12.21;100.00;-21014.13;6277368;22;20420;-72
2021/09/28 02:23:49;;;;;;;0.70;0.60;;;;;;;12.23;100.00;-21014.53;6277363;22;20460;-71
2021/09/28 02:26:16;;;;;;;0.70;0.70;;;;;;;12.20;100.00;-21013.72;6249804;22;20438;-72
2021/09/28 02:28:48;;;;;;;0.70;0.60;;;;;;;12.23;100.00;-21014.53;6277296;22;20472;-72
2021/09/28 02:31:15;;;;;;;0.70;0.70;;;;;;;12.21;100.00;-21014.00;6276747;22;20459;-72
2021/09/28 02:33:43;;;;;;;0.70;0.60;;;;;;;12.21;100.00;-21014.13;6250969;22;20391;-72
2021/09/28 02:36:13;;;;;;;0.70;0.60;;;;;;;12.30;100.00;-21016.47;6277690;22;20712;-72
2021/09/28 02:38:40;;;;;;;0.70;0.60;;;;;;;12.31;100.00;-21016.75;6277345;22;20880;-72
2021/09/28 02:41:07;;;;;;;0.70;0.63;;;;;;;12.30;100.00;-21016.47;6250402;22;20399;-72
2021/09/28 02:43:34;;;;;;;0.73;0.73;;;;;;;12.29;100.00;-21016.19;6276891;22;20388;-73
2021/09/28 02:46:02;;;;;;;0.70;0.60;;;;;;;12.29;100.00;-21016.19;6223298;22;20431;-72
2021/09/28 02:48:32;;;;;;;0.70;0.60;;;;;;;12.23;100.00;-21014.53;6250175;22;20402;-72
2021/09/28 02:50:59;;;;;;;0.70;0.70;;;;;;;12.19;100.00;-21013.44;6225239;22;20399;-72
2021/09/28 02:53:26;;;;;;;0.70;0.70;;;;;;;12.14;100.00;-21012.06;6225062;22;20500;-72
2021/09/28 02:55:53;;;;;;;0.70;0.70;;;;;;;12.16;100.00;-21012.59;6277176;22;20375;-72
2021/09/28 02:58:19;;;;;;;0.70;0.60;;;;;;;12.23;100.00;-21014.53;6276893;22;20438;-72
2021/09/28 03:00:46;;;;;;;0.70;0.60;;;;;;;12.28;100.00;-21015.91;6275952;22;20469;-72
2021/09/28 03:03:15;;;;;;;0.70;0.60;;;;;;;12.26;100.00;-21015.38;6275905;22;20387;-72
2021/09/28 03:05:43;;;;;;;0.70;0.70;;;;;;;12.20;100.00;-21013.72;6250396;22;20419;-72
2021/09/28 03:08:10;;;;;;;0.70;0.70;;;;;;;12.25;100.00;-21015.09;6276487;22;20403;-72
2021/09/28 03:10:40;;;;;;;0.70;0.67;;;;;;;12.24;100.00;-21014.81;6249864;22;20406;-72
2021/09/28 03:13:07;;;;;;;0.63;0.60;;;;;;;12.20;100.00;-21013.72;6249756;22;20469;-72
2021/09/28 03:15:35;;;;;;;0.70;0.60;;;;;;;12.09;100.00;-21010.94;6276249;22;20380;-71
2021/09/28 03:18:02;;;;;;;0.70;0.60;;;;;;;12.06;100.00;-21009.97;6276903;22;20412;-71
2021/09/28 03:20:31;;;;;;;0.70;0.60;;;;;;;12.06;100.00;-21010.13;6276094;22;20390;-71
2021/09/28 03:22:59;;;;;;;0.70;0.60;;;;;;;12.02;100.00;-21009.00;6276533;22;20473;-72
2021/09/28 03:25:26;;;;;;;0.70;0.60;;;;;;;11.94;100.00;-21006.66;6249557;22;20904;-71
2021/09/28 03:27:53;;;;;;;0.70;0.60;;;;;;;11.90;100.00;-21005.69;6276933;22;20372;-71
2021/09/28 03:30:20;;;;;;;0.70;0.70;;;;;;;11.92;100.00;-21006.13;6276144;22;20373;-71
2021/09/28 03:32:47;;;;;;;0.70;0.60;;;;;;;11.93;100.00;-21006.53;6276747;22;20429;-71
2021/09/28 03:35:14;;;;;;;0.70;0.60;;;;;;;11.90;100.00;-21005.56;6249694;22;20391;-71
2021/09/28 03:37:42;;;;;;;0.70;0.60;;;;;;;11.93;100.00;-21006.38;6275638;22;20405;-71
2021/09/28 03:40:11;;;;;;;0.70;0.60;;;;;;;11.96;100.00;-21007.34;6248763;22;20428;-72
2021/09/28 03:42:38;;;;;;;0.70;0.60;;;;;;;11.89;100.00;-21005.44;6250011;22;20431;-71
2021/09/28 03:45:06;;;;;;;0.70;0.63;;;;;;;11.82;100.00;-21003.50;6275407;22;20758;-71
2021/09/28 03:47:32;;;;;;;0.70;0.60;;;;;;;11.83;100.00;-21003.75;6249644;22;20406;-71
2021/09/28 03:50:02;;;;;;;0.70;0.70;;;;;;;11.79;100.00;-21002.66;6249559;22;20401;-71
2021/09/28 03:52:30;;;;;;;0.70;0.70;;;;;;;11.74;100.00;-21001.41;6249510;22;20420;-71
2021/09/28 03:54:58;;;;;;;0.70;0.63;;;;;;;11.64;100.00;-20998.50;6249808;22;20387;-72
2021/09/28 03:57:25;;;;;;;0.70;0.70;;;;;;;11.54;100.00;-20996.03;6248765;22;20390;-72
2021/09/28 03:59:53;;;;;;;0.70;0.60;;;;;;;11.53;100.00;-20995.63;6224039;22;20420;-72
2021/09/28 04:02:20;;;;;;;0.70;0.60;;;;;;;11.54;100.00;-20996.03;6276654;22;20390;-72
2021/09/28 04:04:47;;;;;;;0.67;0.60;;;;;;;11.50;100.00;-20994.91;6249645;22;20370;-72
2021/09/28 04:07:14;;;;;;;0.70;0.60;;;;;;;11.52;100.00;-20995.34;6249649;22;20700;-71
2021/09/28 04:09:41;;;;;;;0.70;0.60;;;;;;;11.45;100.00;-20993.53;6275124;22;20387;-72
2021/09/28 04:12:12;;;;;;;0.70;0.70;;;;;;;11.31;100.00;-20989.69;6249240;22;20733;-71
2021/09/28 04:14:45;;;;;;;0.70;0.60;;;;;;;11.20;100.00;-20986.78;6224480;22;20733;-71
2021/09/28 04:17:12;;;;;;;0.70;0.60;;;;;;;11.09;100.00;-20983.88;6249096;22;20717;-72
2021/09/28 04:19:38;;;;;;;0.70;0.60;;;;;;;10.98;100.00;-20980.69;6249083;22;20378;-71
2021/09/28 04:22:07;;;;;;;0.70;0.60;;;;;;;10.87;100.00;-20977.78;6248846;22;20739;-72
2021/09/28 04:24:34;;;;;;;0.80;0.70;;;;;;;10.81;100.00;-20976.13;6249351;22;20405;-71
2021/09/28 04:27:01;;;;;;;0.70;0.60;;;;;;;10.72;100.00;-20973.78;6249387;22;20438;-71
2021/09/28 04:29:29;;;;;;;0.70;0.60;;;;;;;10.61;100.00;-20970.88;6276453;22;20371;-72
2021/09/28 04:31:56;;;;;;;0.70;0.60;;;;;;;10.60;100.00;-20970.44;6247320;22;20370;-71
2021/09/28 04:34:23;;;;;;;0.70;0.70;;;;;;;10.55;100.00;-20969.22;6276684;22;20424;-71
2021/09/28 04:36:50;;;;;;;0.70;0.63;;;;;;;10.66;100.00;-20971.97;6251039;22;20405;-71
2021/09/28 04:39:17;;;;;;;0.70;0.60;;;;;;;10.71;100.00;-20973.34;6251626;22;20753;-71
2021/09/28 04:41:44;;;;;;;0.70;0.60;;;;;;;10.62;100.00;-20971.16;6278715;22;20370;-72
2021/09/28 04:44:11;;;;;;;0.70;0.70;;;;;;;10.56;100.00;-20969.34;6278532;22;20374;-71
2021/09/28 04:46:41;;;;;;;0.70;0.60;;;;;;;10.46;100.00;-20966.72;6225772;22;20440;-72
2021/09/28 04:49:08;;;;;;;0.70;0.60;;;;;;;10.39;100.00;-20964.78;6250957;22;20440;-71
2021/09/28 04:51:36;;;;;;;0.70;0.60;;;;;;;10.50;100.00;-20967.81;6251094;22;20396;-71
2021/09/28 04:54:03;;;;;;;0.70;0.60;;;;;;;10.40;100.00;-20965.06;6251583;22;20781;-72
2021/09/28 04:56:30;;;;;;;0.70;0.60;;;;;;;10.33;100.00;-20963.13;6252965;22;20432;-71
2021/09/28 04:58:57;;;;;;;0.70;0.60;;;;;;;10.25;100.00;-20961.03;6251238;22;20461;-71
2021/09/28 05:01:24;;;;;;;0.70;0.60;;;;;;;10.22;100.00;-20960.06;6250233;22;20440;-71
2021/09/28 05:03:52;;;;;;;0.70;0.60;;;;;;;10.25;100.00;-20960.91;6251067;22;20762;-71
2021/09/28 05:06:19;;;;;;;0.70;0.60;;;;;;;10.24;100.00;-20960.75;6278230;22;20960;-72
2021/09/28 05:08:46;;;;;;;0.70;0.60;;;;;;;10.25;100.00;-20961.03;6250620;22;20406;-71
2021/09/28 05:11:13;;;;;;;0.60;0.60;;;;;;;10.30;100.00;-20962.28;6277814;22;20406;-71
2021/09/28 05:13:41;;;;;;;0.70;0.60;;;;;;;10.54;100.00;-20968.78;6250571;22;20467;-71
2021/09/28 05:16:08;;;;;;;0.70;0.60;;;;;;;10.59;100.00;-20970.19;6277713;22;20438;-71
2021/09/28 05:18:35;;;;;;;0.70;0.60;;;;;;;10.81;100.00;-20976.25;6251301;22;20454;-71
2021/09/28 05:21:03;;;;;;;0.70;0.60;;;;;;;10.94;100.00;-20979.72;6278251;22;20472;-71
2021/09/28 05:23:31;;;;;;;0.70;0.60;;;;;;;10.84;100.00;-20976.94;6277959;22;20479;-71
2021/09/28 05:25:58;;;;;;;0.70;0.60;;;;;;;10.65;100.00;-20971.84;6277330;22;20467;-71
2021/09/28 05:28:25;;;;;;;0.70;0.60;;;;;;;10.53;100.00;-20968.66;6225063;22;20452;-72
2021/09/28 05:30:57;;;;;;;0.70;0.60;;;;;;;10.35;100.00;-20963.81;6277115;22;20439;-72
2021/09/28 05:33:24;;;;;;;0.70;0.60;;;;;;;10.22;100.00;-20960.06;6277691;22;20389;-71
2021/09/28 05:35:53;;;;;;;0.70;0.70;;;;;;;10.06;100.00;-20955.91;6250820;22;20402;-71
2021/09/28 05:38:25;;;;;;;0.70;0.60;;;;;;;10.04;100.00;-20955.22;6277657;22;20403;-71
2021/09/28 05:40:52;;;;;;;0.70;0.60;;;;;;;9.97;100.00;-20953.44;6277221;22;20761;-71
2021/09/28 05:43:19;;;;;;;0.70;0.60;;;;;;;9.88;100.00;-20950.94;6249932;22;20409;-72
2021/09/28 05:45:47;;;;;;;0.70;0.60;;;;;;;9.90;100.00;-20951.63;6249659;22;20439;-71
2021/09/28 05:48:16;;;;;;;0.70;0.60;;;;;;;9.90;100.00;-20951.50;6250669;22;20938;-72
2021/09/28 05:50:45;;;;;;;0.70;0.60;;;;;;;9.94;100.00;-20952.59;6277765;22;20397;-71
2021/09/28 05:53:13;;;;;;;0.70;0.60;;;;;;;10.01;100.00;-20954.53;6250999;22;20407;-71
2021/09/28 05:55:42;;;;;;;1.27;1.17;;;;;;;10.05;100.00;-20955.66;6277746;22;20467;-70
2021/09/28 05:58:09;;;;;;;0.70;0.60;;;;;;;10.15;100.00;-20958.28;6277796;22;20393;-71
2021/09/28 06:00:36;;;;;;;5.30;1.00;;;;;;;10.18;100.00;-20958.97;6224152;22;20441;-70
2021/09/28 06:03:03;;;;;;;0.70;0.60;;;;;;;10.17;100.00;-20958.81;6250712;22;20405;-71
2021/09/28 06:05:31;;;;;;;0.70;0.60;;;;;;;10.16;100.00;-20958.69;6250110;22;20396;-70
2021/09/28 06:07:58;;;;;;;0.70;0.60;;;;;;;10.13;100.00;-20957.84;6251099;22;20404;-71
2021/09/28 06:10:25;;;;;;;0.70;0.60;;;;;;;10.12;100.00;-20957.44;6278179;22;20405;-71
2021/09/28 06:12:58;;;;;;;0.70;0.67;;;;;;;10.13;100.00;-20957.84;6278022;22;20482;-71
2021/09/28 06:15:27;;;;;;;0.70;0.60;;;;;;;10.15;100.00;-20958.41;6277095;22;20474;-71
2021/09/28 06:17:55;;;;;;;0.70;0.70;;;;;;;10.21;100.00;-20959.78;6277258;22;20381;-71
2021/09/28 06:20:22;;;;;;;0.70;0.60;;;;;;;10.26;100.00;-20961.31;6277161;22;20392;-71
2021/09/28 06:22:49;;;;;;;0.70;0.60;;;;;;;10.33;100.00;-20963.25;6277488;22;20495;-71
2021/09/28 06:25:17;;;;;;;0.70;0.70;;;;;;;10.37;100.00;-20964.22;6277580;22;20862;-70
2021/09/28 06:27:44;;;;;;;0.70;0.60;;;;;;;10.39;100.00;-20964.91;6276942;22;20524;-71
2021/09/28 06:30:13;;;;;;;0.70;0.70;;;;;;;10.40;100.00;-20965.06;6276475;22;20392;-70
2021/09/28 06:32:41;;;;;;;0.70;0.70;;;;;;;10.36;100.00;-20963.94;6277385;22;20367;-71
2021/09/28 06:35:08;;;;;;;0.70;0.70;;;;;;;10.38;100.00;-20964.50;6250095;22;20428;-71
2021/09/28 06:37:35;;;;;;;0.70;0.60;;;;;;;10.50;100.00;-20967.69;6277120;22;20405;-71
2021/09/28 06:40:03;;;;;;;0.70;0.60;;;;;;;10.60;100.00;-20970.59;6250473;22;20410;-70
2021/09/28 06:42:30;;;;;;;0.70;0.60;;;;;;;10.72;100.00;-20973.78;6276964;22;20397;-71
2021/09/28 06:44:57;;;;;;;0.70;0.60;;;;;;;10.84;100.00;-20976.94;6277598;22;20390;-70
2021/09/28 06:47:27;;;;;;;0.70;0.70;;;;;;;10.98;100.00;-20980.81;6250441;22;20819;-71
2021/09/28 06:49:56;;;;;;;0.70;0.60;;;;;;;11.12;100.00;-20984.69;6278131;22;20373;-70
2021/09/28 06:52:23;;;;;;;0.70;0.70;;;;;;;11.34;100.00;-20990.50;6250305;22;20697;-71
2021/09/28 06:54:50;;;;;;;0.70;0.60;;;;;;;11.49;100.00;-20994.50;6277825;22;20394;-71
2021/09/28 06:57:17;;;;;;;0.70;0.67;;;;;;;11.61;100.00;-20997.97;6250839;22;20384;-70
2021/09/28 06:59:46;;;;;;;0.70;0.60;;;;;;;11.77;100.00;-21002.09;6276713;22;20816;-70
2021/09/28 07:02:14;;;;;;;0.70;0.60;;;;;;;11.95;100.00;-21007.09;6250326;22;20409;-71
2021/09/28 07:04:44;;;;;;;0.70;0.60;;;;;;;11.99;100.00;-21008.06;6251535;22;20390;-71
2021/09/28 07:07:11;;;;;;;0.70;0.60;;;;;;;11.97;100.00;-21007.63;6276970;22;20448;-71
2021/09/28 07:09:40;;;;;;;0.70;0.60;;;;;;;12.05;100.00;-21009.84;6276476;22;20697;-71
2021/09/28 07:12:13;;;;;;;0.70;0.70;;;;;;;12.04;100.00;-21009.56;6276976;22;20404;-71
2021/09/28 07:14:40;;;;;;;0.70;0.60;;;;;;;12.12;100.00;-21011.63;6276479;22;20875;-71
2021/09/28 07:17:09;;;;;;;0.70;0.60;;;;;;;12.19;100.00;-21013.56;6276433;22;20466;-71
2021/09/28 07:19:39;;;;;;;0.70;0.60;;;;;;;12.38;100.00;-21018.69;6250550;22;20791;-71
2021/09/28 07:22:08;;;;;;;0.70;0.60;;;;;;;12.50;100.00;-21021.84;6276009;22;20391;-71
2021/09/28 07:24:35;;;;;;;0.70;0.60;;;;;;;12.57;100.00;-21023.78;6250048;22;20448;-71
2021/09/28 07:27:02;;;;;;;0.70;0.60;;;;;;;12.56;100.00;-21023.66;6275532;22;20419;-70
2021/09/28 07:29:29;;;;;;;0.70;0.60;;;;;;;12.66;100.00;-21026.13;6276395;22;20368;-71
2021/09/28 07:31:57;;;;;;;0.70;0.70;;;;;;;12.73;100.00;-21028.06;6277123;22;20371;-69
2021/09/28 07:34:31;;;;;;;0.70;0.50;;;;;;;12.75;100.00;-21028.63;6277529;22;20395;-71
2021/09/28 07:36:59;;;;;;;0.70;0.60;;;;;;;12.75;100.00;-21028.63;6276504;22;20378;-69
2021/09/28 07:39:27;;;;;;;0.70;0.60;;;;;;;12.79;100.00;-21029.72;6249546;22;20461;-72
2021/09/28 07:41:55;;;;;;;0.70;0.70;;;;;;;12.95;100.00;-21034.00;6277844;22;20395;-70
2021/09/28 07:44:24;;;;;;;0.70;0.60;;;;;;;13.05;100.00;-21036.75;6276282;22;20391;-72
2021/09/28 07:46:51;;;;;;;0.80;0.70;;;;;;;13.25;100.00;-21042.13;6277277;22;20893;-73
2021/09/28 07:49:18;;;;;;;0.70;0.70;;;;;;;13.44;100.00;-21047.38;6250191;22;20703;-71
2021/09/28 07:51:45;;;;;;;0.70;0.60;;;;;;;13.71;100.00;-21054.53;6250417;22;20414;-68
2021/09/28 07:54:12;;;;;;;0.70;0.70;;;;;;;13.81;100.00;-21057.16;6277071;22;20786;-68
2021/09/28 07:56:42;;;;;;;0.70;0.70;;;;;;;14.01;100.00;-21062.81;6277013;22;20486;-68
2021/09/28 07:59:12;;;;;;;0.70;0.70;;;;;;;14.12;100.00;-21065.56;6276137;22;20705;-71
2021/09/28 08:01:40;;;;;;;0.70;0.60;;;;;;;14.30;100.00;-21070.53;6224931;22;20494;-70
2021/09/28 08:04:09;;;;;;;0.83;0.80;;;;;;;14.58;100.00;-21078.09;6276280;22;20373;-71
2021/09/28 08:06:36;;;;;;;0.70;0.70;;;;;;;14.53;100.00;-21076.56;6250488;22;20421;-69
2021/09/28 08:09:03;;;;;;;0.70;0.60;;;;;;;14.76;100.00;-21082.91;6276865;22;20407;-71
2021/09/28 08:11:30;;;;;;;0.70;0.60;;;;;;;14.73;100.00;-21082.09;6250766;22;20399;-70
2021/09/28 08:13:58;;;;;;;0.70;0.70;;;;;;;14.62;100.00;-21062.19;6226033;22;20418;-70
2021/09/28 08:16:27;;;;;;;0.70;0.60;;;;;;;14.91;100.00;-20800.19;6251700;22;20371;-71
2021/09/28 08:18:55;;;;;;;0.70;0.70;;;;;;;14.96;100.00;-20551.81;6278850;22;20379;-71
2021/09/28 08:21:24;;;;;;;0.80;0.80;;;;;;;14.97;100.00;-20335.03;6251053;22;20441;-71
2021/09/28 08:23:51;;;;;;;0.70;0.60;;;;;;;15.22;100.00;-19988.16;6278197;22;20418;-69
2021/09/28 08:29:11;;;;;;;0.70;0.70;;;;;;;15.54;100.00;-19516.44;6277685;22;20375;-69
2021/09/28 08:31:42;;;;;;;0.70;0.60;;;;;;;16.02;100.00;-19073.06;6278177;22;20814;-71
2021/09/28 08:34:13;;;;;;;0.80;0.80;;;;;;;16.22;100.00;-19039.97;6278494;22;20366;-71
2021/09/28 08:36:40;;;;;;;0.70;0.67;;;;;;;16.63;100.00;-18849.69;6278454;22;20864;-71
2021/09/28 08:39:12;;;;;;;0.80;0.70;;;;;;;17.12;100.00;-19248.53;6278309;22;20404;-71
2021/09/28 08:41:43;;;;;;;0.70;0.60;;;;;;;17.18;100.00;-20379.06;6278925;22;20408;-71
2021/09/28 08:44:10;;;;;;;0.73;0.70;;;;;;;17.13;100.00;-21146.66;6278439;22;20377;-70
2021/09/28 08:46:41;;;;;;;0.80;0.70;;;;;;;17.41;100.00;-21154.22;6278430;22;20373;-71
2021/09/28 08:49:08;;;;;;;0.80;0.70;;;;;;;17.29;100.00;-21150.91;6251452;22;20474;-72
2021/09/28 08:51:37;;;;;;;0.70;0.70;;;;;;;17.58;100.00;-21158.72;6277661;22;20387;-72
2021/09/28 08:54:04;;;;;;;0.70;0.60;;;;;;;17.81;100.00;-21165.03;6278484;22;20484;-71
2021/09/28 08:56:32;;;;;;;0.70;0.60;;;;;;;18.04;100.00;-21171.06;6278621;22;20717;-71
2021/09/28 08:59:08;;;;;;;0.80;0.70;;;;;;;18.28;100.00;-21177.66;6226701;22;20744;-71
2021/09/28 09:01:37;;;;;;;0.70;0.60;;;;;;;18.46;100.00;-21182.31;6278907;22;20392;-71
2021/09/28 09:04:15;;;;;;;0.73;0.70;;;;;;;18.25;100.00;-21176.69;6252029;22;20401;-71
2021/09/28 09:06:47;;;;;;;0.70;0.63;;;;;;;18.11;100.00;-21173.00;6278752;22;20450;-71
2021/09/28 09:09:17;;;;;;;0.70;0.60;;;;;;;18.35;100.00;-21179.56;6252979;22;20456;-70
2021/09/28 09:11:46;;;;;;;0.70;0.60;;;;;;;18.70;100.00;-21188.88;6278826;22;20919;-71
2021/09/28 09:14:16;;;;;;;0.70;0.60;;;;;;;18.58;100.00;-21185.72;6277519;22;20874;-72
2021/09/28 09:16:43;;;;;;;0.70;0.60;;;;;;;19.18;100.00;-21201.72;6251670;22;20423;-72
2021/09/28 09:19:16;;;;;;;0.70;0.60;;;;;;;18.73;100.00;-21189.69;6278724;22;20365;-72
2021/09/28 09:21:48;;;;;;;0.70;0.60;;;;;;;19.26;100.00;-21203.94;6277097;22;20726;-72
2021/09/28 09:24:43;;;;;;;0.70;0.60;;;;;;;19.37;100.00;-21206.66;6277747;22;20403;-71
2021/09/28 09:27:17;;;;;;;0.77;0.70;;;;;;;19.90;100.00;-21220.88;6277426;22;20887;-71
2021/09/28 09:30:07;;;;;;;0.70;0.60;;;;;;;19.41;100.00;-21207.75;6277793;22;20395;-71
2021/09/28 09:32:44;;;;;;;0.70;0.60;;;;;;;19.75;100.00;-21216.91;6277085;22;20429;-71
2021/09/28 09:35:22;;;;;;;0.70;0.60;;;;;;;19.96;100.00;-21222.66;6251171;22;20436;-72
2021/09/28 09:38:02;;;;;;;0.70;0.60;;;;;;;20.08;100.00;-21225.81;6251363;22;20429;-71
2021/09/28 09:40:37;;;;;;;0.70;0.60;;;;;;;19.53;100.00;-21211.03;6277932;22;20413;-71
2021/09/28 09:43:07;;;;;;;0.70;0.60;;;;;;;19.85;100.00;-21219.66;6277065;22;20737;-72
2021/09/28 09:45:38;;;;;;;0.70;0.60;;;;;;;20.02;100.00;-21224.16;6277988;22;20457;-72
2021/09/28 09:48:21;;;;;;;1.03;0.90;;;;;;;20.16;100.00;-21227.84;6277771;22;20438;-71
2021/09/28 09:50:57;;;;;;;0.70;0.60;;;;;;;20.21;100.00;-21229.34;6250917;22;20386;-72
2021/09/28 09:53:25;;;;;;;0.70;0.50;;;;;;;19.77;100.00;-21217.47;6250591;22;20513;-72
2021/09/28 09:55:54;;;;;;;0.70;0.60;;;;;;;19.89;100.00;-21220.63;6249913;22;20494;-72
2021/09/28 09:58:21;;;;;;;0.70;0.60;;;;;;;20.07;100.00;-21225.53;6249686;22;20472;-72
2021/09/28 10:00:49;;;;;;;0.70;0.60;;;;;;;19.68;100.00;-21215.00;6278034;22;20407;-72
2021/09/28 10:03:16;;;;;;;0.70;0.60;;;;;;;19.97;100.00;-21222.78;6277707;22;20450;-71
2021/09/28 10:05:43;;;;;;;0.70;0.60;;;;;;;20.07;100.00;-21225.53;6277594;22;20391;-72
2021/09/28 10:08:15;;;;;;;0.70;0.60;;;;;;;20.15;100.00;-21227.72;6276904;22;20427;-71
2021/09/28 10:10:43;;;;;;;0.70;0.60;;;;;;;19.68;100.00;-21215.16;6250943;22;20379;-71
2021/09/28 10:13:51;;;;;;;0.70;0.60;;;;;;;19.73;100.00;-21216.50;6250337;22;20407;-71
2021/09/28 10:16:34;;;;;;;0.80;0.70;;;;;;;19.74;100.00;-21216.66;6277363;22;20413;-72
2021/09/28 10:19:02;;;;;;;1.03;1.00;;;;;;;19.58;100.00;-21212.41;6249609;22;20473;-72
2021/09/28 10:21:38;;;;;;;0.70;0.60;;;;;;;20.05;100.00;-21224.84;6277770;22;20421;-72
2021/09/28 10:24:29;;;;;;;0.70;0.60;;;;;;;20.41;100.00;-21234.53;6250450;22;20396;-73
2021/09/28 10:27:28;;;;;;;0.70;0.60;;;;;;;20.00;100.00;-21223.63;6251138;22;20421;-72
2021/09/28 10:30:04;;;;;;;0.70;0.60;;;;;;;19.89;100.00;-21220.63;6251663;22;20367;-72
2021/09/28 10:32:48;;;;;;;0.90;0.90;;;;;;;20.12;100.00;-21226.75;6250221;22;20489;-71
2021/09/28 10:35:17;;;;;;;0.70;0.60;;;;;;;19.88;100.00;-21220.47;6276430;22;20371;-72
2021/09/28 10:37:53;;;;;;;0.70;0.63;;;;;;;20.13;100.00;-21227.03;6277119;22;20424;-72
2021/09/28 10:40:47;;;;;;;0.70;0.70;;;;;;;19.96;100.00;-21222.53;6250806;22;20449;-72
2021/09/28 10:43:29;;;;;;;0.70;0.60;;;;;;;19.97;100.00;-21222.94;6276950;22;20700;-72
2021/09/28 10:46:00;;;;;;;0.70;0.70;;;;;;;20.23;100.00;-21229.91;6250062;22;20363;-72
2021/09/28 10:48:45;;;;;;;0.70;0.60;;;;;;;19.87;100.00;-21220.06;6277009;22;20820;-72
2021/09/28 10:51:14;;;;;;;0.70;0.60;;;;;;;20.15;100.00;-21227.56;6250518;22;20788;-71
2021/09/28 10:53:45;;;;;;;0.70;0.60;;;;;;;20.24;100.00;-21230.03;6250085;22;20872;-72
2021/09/28 10:56:15;;;;;;;0.70;0.70;;;;;;;19.95;100.00;-21222.25;6277263;22;20342;-73
2021/09/28 10:58:54;;;;;;;0.70;0.60;;;;;;;19.98;100.00;-21223.06;6274809;22;20437;-71
2021/09/28 11:01:25;;;;;;;0.80;0.70;;;;;;;19.49;100.00;-21209.94;6274128;22;20364;-71
2021/09/28 11:03:59;;;;;;;0.70;0.60;;;;;;;19.70;100.00;-21215.69;6223898;22;20396;-71
2021/09/28 11:07:07;;;;;;;0.80;0.73;;;;;;;20.19;100.00;-21228.81;5088798;27;20540;-72
2021/09/28 11:10:07;;;;;;;0.80;0.70;;;;;;;20.25;100.00;-21230.44;5070420;28;20386;-72
2021/09/28 11:12:34;;;;;;;0.70;0.60;;;;;;;20.65;100.00;-21240.97;5041760;28;20856;-72
2021/09/28 11:15:01;;;;;;;1.37;1.23;;;;;;;20.43;100.00;-21235.09;5070138;28;20409;-73
2021/09/28 11:17:33;;;;;;;0.73;0.60;;;;;;;20.62;100.00;-21240.28;5070558;28;20405;-72
2021/09/28 11:20:00;;;;;;;0.70;0.60;;;;;;;20.52;100.00;-21237.56;5070404;28;20406;-71
2021/09/28 11:22:29;;;;;;;0.70;0.60;;;;;;;20.66;100.00;-21241.25;5070263;28;20447;-72
2021/09/28 11:24:56;;;;;;;0.70;0.60;;;;;;;20.57;100.00;-21238.78;5070434;28;20469;-71
2021/09/28 11:27:23;;;;;;;0.90;0.70;;;;;;;21.21;100.00;-21255.97;5068580;28;20405;-72
2021/09/28 11:29:53;;;;;;;0.70;0.60;;;;;;;21.31;100.00;-21258.56;5057006;28;20419;-71
2021/09/28 11:32:20;;;;;;;0.70;0.60;;;;;;;21.42;100.00;-21261.69;5050403;28;20431;-72